Time;durP1;ratioP1;P1;durP2;ratioP2;P2;SDS_P1;SDS_P2;PMS_P1;PMS_P2;Temp;Humidity;BMP_temperature;BMP_pressure;BME280_temperature;BME280_humidity;BME280_pressure;Samples;Min_cycle;Max_cycle;Signal;HPM_P1;HPM_P2
2023/01/31 00:00:10;;;;;;;1.85;1.17;;;;;;;;;;5055449;28;20139;-44
2023/01/31 00:02:36;;;;;;;2.20;1.05;;;;;;;;;;5059202;28;20026;-44
2023/01/31 00:05:02;;;;;;;2.97;0.90;;;;;;;;;;5062067;28;21710;-46
2023/01/31 00:07:28;;;;;;;1.35;0.80;;;;;;;;;;5063604;28;20108;-45
2023/01/31 00:09:54;;;;;;;1.77;0.77;;;;;;;;;;5060154;28;20025;-45
2023/01/31 00:12:20;;;;;;;1.38;0.70;;;;;;;;;;5063281;28;20013;-44
2023/01/31 00:14:46;;;;;;;1.23;0.98;;;;;;;;;;5062619;28;20029;-46
2023/01/31 00:17:12;;;;;;;3.55;1.50;;;;;;;;;;5061383;28;20017;-44
2023/01/31 00:19:38;;;;;;;2.28;0.60;;;;;;;;;;5060023;28;20478;-44
2023/01/31 00:22:04;;;;;;;1.67;1.00;;;;;;;;;;5060744;28;20067;-45
2023/01/31 00:24:29;;;;;;;1.33;0.82;;;;;;;;;;5063730;28;20025;-46
2023/01/31 00:26:55;;;;;;;1.85;0.80;;;;;;;;;;5062401;28;20071;-45
2023/01/31 00:29:23;;;;;;;1.88;0.80;;;;;;;;;;5062289;28;20092;-44
2023/01/31 00:31:49;;;;;;;2.45;0.80;;;;;;;;;;5061639;28;20425;-44
2023/01/31 00:34:15;;;;;;;1.02;0.80;;;;;;;;;;5061263;28;20044;-44
2023/01/31 00:36:41;;;;;;;0.85;0.60;;;;;;;;;;5062890;28;20017;-44
2023/01/31 00:39:07;;;;;;;2.38;1.10;;;;;;;;;;5062539;28;20528;-44
2023/01/31 00:41:34;;;;;;;1.90;1.00;;;;;;;;;;5062334;28;20020;-44
2023/01/31 00:44:00;;;;;;;2.00;0.90;;;;;;;;;;5060700;28;20033;-44
2023/01/31 00:46:27;;;;;;;1.45;0.80;;;;;;;;;;5063373;28;20033;-45
2023/01/31 00:48:54;;;;;;;2.55;0.60;;;;;;;;;;5062404;28;20021;-43
2023/01/31 00:51:20;;;;;;;0.88;0.60;;;;;;;;;;5060028;28;20021;-45
2023/01/31 00:53:47;;;;;;;1.48;0.70;;;;;;;;;;5059570;28;20151;-45
2023/01/31 00:56:14;;;;;;;2.03;0.98;;;;;;;;;;5062762;28;20056;-45
2023/01/31 00:58:40;;;;;;;1.80;0.80;;;;;;;;;;5062591;28;20017;-45
2023/01/31 01:01:11;;;;;;;2.03;0.88;;;;;;;;;;5059976;28;20454;-45
2023/01/31 01:03:37;;;;;;;4.10;0.93;;;;;;;;;;5061694;28;20117;-45
2023/01/31 01:06:04;;;;;;;1.45;0.82;;;;;;;;;;5049944;28;20502;-45
2023/01/31 01:08:30;;;;;;;2.13;0.90;;;;;;;;;;5058863;28;20034;-46
2023/01/31 01:10:56;;;;;;;1.27;1.05;;;;;;;;;;5061924;28;20025;-44
2023/01/31 01:13:22;;;;;;;3.13;0.80;;;;;;;;;;5059392;28;20060;-46
2023/01/31 01:15:48;;;;;;;4.10;0.98;;;;;;;;;;5052565;28;20039;-46
2023/01/31 01:18:14;;;;;;;1.70;0.70;;;;;;;;;;5051966;28;20845;-45
2023/01/31 01:20:40;;;;;;;1.13;0.60;;;;;;;;;;5053125;28;20462;-45
2023/01/31 01:23:06;;;;;;;0.93;0.60;;;;;;;;;;5042537;28;20365;-44
2023/01/31 01:25:41;;;;;;;2.25;0.80;;;;;;;;;;5047826;28;20039;-46
2023/01/31 01:28:07;;;;;;;1.73;0.95;;;;;;;;;;5051828;28;20017;-45
2023/01/31 01:30:33;;;;;;;1.33;0.80;;;;;;;;;;5043171;28;20066;-44
2023/01/31 01:32:58;;;;;;;2.45;0.70;;;;;;;;;;5051629;28;20067;-45
2023/01/31 01:35:24;;;;;;;1.70;0.70;;;;;;;;;;5052583;28;20021;-45
2023/01/31 01:37:50;;;;;;;2.35;0.63;;;;;;;;;;5052083;28;20367;-43
2023/01/31 01:40:17;;;;;;;1.23;0.68;;;;;;;;;;5045399;28;20053;-46
2023/01/31 01:42:43;;;;;;;1.40;0.50;;;;;;;;;;5049389;28;20669;-44
2023/01/31 01:45:15;;;;;;;3.70;0.82;;;;;;;;;;5033575;28;20120;-45
2023/01/31 01:47:48;;;;;;;1.77;0.70;;;;;;;;;;5052367;28;20021;-44
2023/01/31 01:50:33;;;;;;;1.48;0.95;;;;;;;;;;5051587;28;20033;-44
2023/01/31 01:53:10;;;;;;;1.45;0.65;;;;;;;;;;5051188;28;20036;-44
2023/01/31 01:55:45;;;;;;;2.58;1.00;;;;;;;;;;5051755;28;20481;-44
2023/01/31 01:58:14;;;;;;;1.52;0.70;;;;;;;;;;5050373;28;20109;-44
2023/01/31 02:00:40;;;;;;;0.90;0.50;;;;;;;;;;5052288;28;20028;-45
2023/01/31 02:03:07;;;;;;;2.08;0.80;;;;;;;;;;5050878;28;20051;-44
2023/01/31 02:05:40;;;;;;;1.95;0.73;;;;;;;;;;5053090;28;20063;-44
2023/01/31 02:08:06;;;;;;;1.95;0.90;;;;;;;;;;5070255;28;20052;-45
2023/01/31 02:10:37;;;;;;;2.67;0.82;;;;;;;;;;5071780;28;20021;-44
2023/01/31 02:13:03;;;;;;;1.55;0.68;;;;;;;;;;5068484;28;20021;-45
2023/01/31 02:15:29;;;;;;;1.60;0.93;;;;;;;;;;5068155;28;20358;-44
2023/01/31 02:17:55;;;;;;;2.20;0.68;;;;;;;;;;5070348;28;20025;-45
2023/01/31 02:20:48;;;;;;;1.85;1.13;;;;;;;;;;5071980;28;20035;-44
2023/01/31 02:23:33;;;;;;;1.70;0.90;;;;;;;;;;5070753;28;20284;-44
2023/01/31 02:26:12;;;;;;;2.33;1.00;;;;;;;;;;5070790;28;20024;-44
2023/01/31 02:28:44;;;;;;;1.05;0.63;;;;;;;;;;5071129;28;20032;-45
2023/01/31 02:31:10;;;;;;;;;;;;;;;;;;5069142;28;20023;-44
2023/01/31 02:33:42;;;;;;;1.70;0.70;;;;;;;;;;5068258;28;19905;-44
2023/01/31 02:36:23;;;;;;;2.20;0.80;;;;;;;;;;5070653;28;20468;-44
2023/01/31 02:38:58;;;;;;;3.35;0.80;;;;;;;;;;5070068;28;20032;-43
2023/01/31 02:41:33;;;;;;;1.33;0.60;;;;;;;;;;5068090;28;20552;-44
2023/01/31 02:47:08;;;;;;;0.98;0.63;;;;;;;;;;5069087;28;20039;-43
2023/01/31 02:49:38;;;;;;;0.93;0.63;;;;;;;;;;5068912;28;20752;-44
2023/01/31 02:52:21;;;;;;;2.20;0.90;;;;;;;;;;5069600;28;20277;-47
2023/01/31 02:57:36;;;;;;;2.85;0.98;;;;;;;;;;5069736;28;20154;-44
2023/01/31 03:00:03;;;;;;;3.78;1.23;;;;;;;;;;5067154;28;20506;-45
2023/01/31 03:02:29;;;;;;;0.88;0.65;;;;;;;;;;5070150;28;20025;-45
2023/01/31 03:04:55;;;;;;;4.18;0.85;;;;;;;;;;5067912;28;20424;-46
2023/01/31 03:07:28;;;;;;;2.03;1.13;;;;;;;;;;5058128;28;20021;-46
2023/01/31 03:09:57;;;;;;;1.85;0.82;;;;;;;;;;5057650;28;20840;-46
2023/01/31 03:12:26;;;;;;;1.05;0.82;;;;;;;;;;5054737;28;20032;-44
2023/01/31 03:15:09;;;;;;;1.45;0.77;;;;;;;;;;5057444;28;20474;-43
2023/01/31 03:17:47;;;;;;;2.35;1.30;;;;;;;;;;5054759;28;20052;-45
2023/01/31 03:20:32;;;;;;;2.42;0.88;;;;;;;;;;5055230;28;20094;-46
2023/01/31 03:23:03;;;;;;;1.77;0.80;;;;;;;;;;5056535;28;20025;-45
2023/01/31 03:25:31;;;;;;;1.85;0.80;;;;;;;;;;5059527;28;20029;-48
2023/01/31 03:27:59;;;;;;;1.50;0.90;;;;;;;;;;5053355;28;20021;-45
2023/01/31 03:30:32;;;;;;;1.48;0.60;;;;;;;;;;5062564;28;20040;-44
2023/01/31 03:33:06;;;;;;;1.48;0.70;;;;;;;;;;5061125;28;20016;-47
2023/01/31 03:35:34;;;;;;;2.38;0.80;;;;;;;;;;5059656;28;20037;-46
2023/01/31 03:38:21;;;;;;;2.28;0.90;;;;;;;;;;5059076;28;20021;-45
2023/01/31 03:40:54;;;;;;;0.90;0.63;;;;;;;;;;5060412;28;20095;-46
2023/01/31 03:43:20;;;;;;;1.45;0.65;;;;;;;;;;5057679;28;20021;-46
2023/01/31 03:45:51;;;;;;;2.50;0.80;;;;;;;;;;5060536;28;20035;-45
2023/01/31 03:48:21;;;;;;;2.78;0.73;;;;;;;;;;5063713;28;20031;-47
2023/01/31 03:50:52;;;;;;;2.88;1.20;;;;;;;;;;5064199;28;20097;-44
2023/01/31 03:53:36;;;;;;;4.03;2.40;;;;;;;;;;5058943;28;20029;-47
2023/01/31 03:56:07;;;;;;;1.52;0.60;;;;;;;;;;5059682;28;20099;-45
2023/01/31 03:58:36;;;;;;;1.27;0.70;;;;;;;;;;5062335;28;20103;-44
2023/01/31 04:01:04;;;;;;;1.13;0.70;;;;;;;;;;5058485;28;20071;-45
2023/01/31 04:03:33;;;;;;;2.70;0.80;;;;;;;;;;5063687;28;20029;-44
2023/01/31 04:05:59;;;;;;;1.52;0.90;;;;;;;;;;5065042;28;20136;-44
2023/01/31 04:08:25;;;;;;;3.97;1.05;;;;;;;;;;5073486;28;20115;-44
2023/01/31 04:10:51;;;;;;;1.95;0.70;;;;;;;;;;5074100;28;20032;-45
2023/01/31 04:13:17;;;;;;;2.47;0.90;;;;;;;;;;5073446;28;20091;-48
2023/01/31 04:15:43;;;;;;;4.38;0.90;;;;;;;;;;5073354;28;20138;-44
2023/01/31 04:18:09;;;;;;;2.28;0.80;;;;;;;;;;5071354;28;20028;-44
2023/01/31 04:20:35;;;;;;;1.45;0.82;;;;;;;;;;5074192;28;20108;-45
2023/01/31 04:23:02;;;;;;;1.38;0.80;;;;;;;;;;5067410;28;20032;-45
2023/01/31 04:25:28;;;;;;;2.40;0.90;;;;;;;;;;5071422;28;20429;-47
2023/01/31 04:27:54;;;;;;;2.53;1.02;;;;;;;;;;5072719;28;20048;-43
2023/01/31 04:30:20;;;;;;;1.42;1.17;;;;;;;;;;5073716;28;20028;-44
2023/01/31 04:32:46;;;;;;;1.83;0.60;;;;;;;;;;5070560;28;20036;-44
2023/01/31 04:35:12;;;;;;;1.27;0.70;;;;;;;;;;5072135;28;20749;-44
2023/01/31 04:37:38;;;;;;;1.48;0.70;;;;;;;;;;5073587;28;20028;-44
2023/01/31 04:40:05;;;;;;;2.03;0.90;;;;;;;;;;5072339;28;20459;-45
2023/01/31 04:42:31;;;;;;;2.30;1.10;;;;;;;;;;5073990;28;20020;-44
2023/01/31 04:44:57;;;;;;;2.50;1.02;;;;;;;;;;5072340;28;20040;-44
2023/01/31 04:47:23;;;;;;;3.00;0.82;;;;;;;;;;5069936;28;20420;-45
2023/01/31 04:49:49;;;;;;;3.80;0.93;;;;;;;;;;5071873;28;20104;-47
2023/01/31 04:52:15;;;;;;;2.25;0.80;;;;;;;;;;5073150;28;20359;-44
2023/01/31 04:54:41;;;;;;;2.25;0.73;;;;;;;;;;5063782;28;20039;-43
2023/01/31 04:57:07;;;;;;;1.45;1.10;;;;;;;;;;5063600;28;20016;-44
2023/01/31 04:59:33;;;;;;;1.98;1.10;;;;;;;;;;5070622;28;20035;-44
2023/01/31 05:01:59;;;;;;;2.55;0.75;;;;;;;;;;5061720;28;20013;-46
2023/01/31 05:04:25;;;;;;;2.80;0.90;;;;;;;;;;5073009;28;20103;-46
2023/01/31 05:06:51;;;;;;;3.58;0.90;;;;;;;;;;5068887;28;20040;-43
2023/01/31 05:09:17;;;;;;;2.70;1.05;;;;;;;;;;5071776;28;20500;-46
2023/01/31 05:11:43;;;;;;;1.90;0.70;;;;;;;;;;5073425;28;20025;-45
2023/01/31 05:14:09;;;;;;;2.08;0.70;;;;;;;;;;5071752;28;20766;-44
2023/01/31 05:16:35;;;;;;;2.10;0.90;;;;;;;;;;5073050;28;20056;-44
2023/01/31 05:19:01;;;;;;;3.25;1.00;;;;;;;;;;5070174;28;20107;-44
2023/01/31 05:21:27;;;;;;;1.25;0.70;;;;;;;;;;5072325;28;20099;-46
2023/01/31 05:23:53;;;;;;;2.80;1.50;;;;;;;;;;5062975;28;20021;-43
2023/01/31 05:26:19;;;;;;;2.25;0.80;;;;;;;;;;5061915;28;20060;-44
2023/01/31 05:28:45;;;;;;;2.15;1.00;;;;;;;;;;5072266;28;20365;-44
2023/01/31 05:31:12;;;;;;;2.80;0.95;;;;;;;;;;5069725;28;20024;-44
2023/01/31 05:33:38;;;;;;;1.52;0.90;;;;;;;;;;5067839;28;20020;-44
2023/01/31 05:36:04;;;;;;;1.65;0.70;;;;;;;;;;5071274;28;20052;-44
2023/01/31 05:38:30;;;;;;;1.35;0.70;;;;;;;;;;5070520;28;20024;-45
2023/01/31 05:40:56;;;;;;;2.67;0.80;;;;;;;;;;5069771;28;20059;-44
2023/01/31 05:43:22;;;;;;;1.90;0.70;;;;;;;;;;5070788;28;20056;-45
2023/01/31 05:45:48;;;;;;;2.47;0.70;;;;;;;;;;5071018;28;20426;-44
2023/01/31 05:48:14;;;;;;;2.05;0.80;;;;;;;;;;5070114;28;20039;-45
2023/01/31 05:50:40;;;;;;;2.67;0.82;;;;;;;;;;5070898;28;20024;-44
2023/01/31 05:53:08;;;;;;;2.45;1.02;;;;;;;;;;5069650;28;20017;-47
2023/01/31 05:55:34;;;;;;;4.15;1.08;;;;;;;;;;5069884;28;20081;-44
2023/01/31 05:57:59;;;;;;;1.85;0.65;;;;;;;;;;5068923;28;20024;-44
2023/01/31 06:00:25;;;;;;;2.38;0.77;;;;;;;;;;5070867;28;20024;-45
2023/01/31 06:02:51;;;;;;;2.35;1.00;;;;;;;;;;5071949;28;20107;-43
2023/01/31 06:05:17;;;;;;;3.42;0.80;;;;;;;;;;5070936;28;20048;-45
2023/01/31 06:07:43;;;;;;;2.67;0.77;;;;;;;;;;5072067;28;20417;-47
2023/01/31 06:10:10;;;;;;;2.92;0.85;;;;;;;;;;5070638;28;20181;-45
2023/01/31 06:12:36;;;;;;;1.60;0.68;;;;;;;;;;5071070;28;20066;-44
2023/01/31 06:15:03;;;;;;;1.70;1.00;;;;;;;;;;5068317;28;20477;-44
2023/01/31 06:17:29;;;;;;;1.80;0.80;;;;;;;;;;5071939;28;20026;-44
2023/01/31 06:19:55;;;;;;;2.55;0.90;;;;;;;;;;5070742;28;20146;-45
2023/01/31 06:22:21;;;;;;;1.75;0.85;;;;;;;;;;5071637;28;20486;-43
2023/01/31 06:24:47;;;;;;;3.22;1.13;;;;;;;;;;5071304;28;20024;-44
2023/01/31 06:27:13;;;;;;;3.35;0.80;;;;;;;;;;5068731;28;20504;-46
2023/01/31 06:29:39;;;;;;;4.15;0.93;;;;;;;;;;5069603;28;20485;-47
2023/01/31 06:32:05;;;;;;;1.15;0.80;;;;;;;;;;5069703;28;20020;-47
2023/01/31 06:34:31;;;;;;;1.75;0.80;;;;;;;;;;5070487;28;20074;-45
2023/01/31 06:36:57;;;;;;;2.53;0.80;;;;;;;;;;5070738;28;20029;-46
2023/01/31 06:39:24;;;;;;;5.70;1.00;;;;;;;;;;5071003;28;20031;-47
2023/01/31 06:41:50;;;;;;;2.28;0.90;;;;;;;;;;5071087;28;20013;-43
2023/01/31 06:44:16;;;;;;;2.97;1.10;;;;;;;;;;5070623;28;20028;-48
2023/01/31 06:46:42;;;;;;;3.83;1.42;;;;;;;;;;5069407;28;20024;-44
2023/01/31 06:49:08;;;;;;;2.17;0.93;;;;;;;;;;5068593;28;20024;-45
2023/01/31 06:51:34;;;;;;;1.58;0.77;;;;;;;;;;5069729;28;20024;-45
2023/01/31 06:54:00;;;;;;;2.20;0.85;;;;;;;;;;5070110;28;20488;-44
2023/01/31 06:56:26;;;;;;;1.88;0.93;;;;;;;;;;5071302;28;20347;-46
2023/01/31 06:58:53;;;;;;;1.35;0.95;;;;;;;;;;5070415;28;20081;-47
2023/01/31 07:01:21;;;;;;;6.50;1.27;;;;;;;;;;5068535;28;20386;-47
2023/01/31 07:03:47;;;;;;;5.60;1.05;;;;;;;;;;5069734;28;20134;-45
2023/01/31 07:06:13;;;;;;;4.97;1.13;;;;;;;;;;5069802;28;20067;-48
2023/01/31 07:08:39;;;;;;;2.40;1.00;;;;;;;;;;5070624;28;20024;-45
2023/01/31 07:11:05;;;;;;;5.18;1.77;;;;;;;;;;5062109;28;20016;-44
2023/01/31 07:13:31;;;;;;;3.45;1.10;;;;;;;;;;5068794;28;20025;-46
2023/01/31 07:15:57;;;;;;;1.88;0.88;;;;;;;;;;5059419;28;20083;-46
2023/01/31 07:18:23;;;;;;;5.85;1.10;;;;;;;;;;5067432;28;20836;-45
2023/01/31 07:20:50;;;;;;;2.97;0.90;;;;;;;;;;5068263;28;20048;-45
2023/01/31 07:23:16;;;;;;;5.80;0.90;;;;;;;;;;5069618;28;20017;-45
2023/01/31 07:25:42;;;;;;;3.83;0.70;;;;;;;;;;5070323;28;20039;-46
2023/01/31 07:28:08;;;;;;;2.47;0.80;;;;;;;;;;5060592;28;20082;-47
2023/01/31 07:30:34;;;;;;;1.75;0.70;;;;;;;;;;5064989;28;20036;-46
2023/01/31 07:33:01;;;;;;;4.20;1.27;;;;;;;;;;5064018;28;20373;-45
2023/01/31 07:35:27;;;;;;;3.45;0.80;;;;;;;;;;5070402;28;20024;-47
2023/01/31 07:37:53;;;;;;;2.25;1.10;;;;;;;;;;5066605;28;20029;-45
2023/01/31 07:40:19;;;;;;;2.85;0.82;;;;;;;;;;5062201;28;20029;-50
2023/01/31 07:42:45;;;;;;;2.92;1.15;;;;;;;;;;5070633;28;20025;-46
2023/01/31 07:45:12;;;;;;;3.88;1.60;;;;;;;;;;5064532;28;20590;-47
2023/01/31 07:47:38;;;;;;;4.40;1.05;;;;;;;;;;5070922;28;20020;-48
2023/01/31 07:50:04;;;;;;;1.60;0.80;;;;;;;;;;5053554;28;20024;-47
2023/01/31 07:52:31;;;;;;;1.75;0.77;;;;;;;;;;5070488;28;20373;-47
2023/01/31 07:54:57;;;;;;;2.22;1.02;;;;;;;;;;5063945;28;20029;-46
2023/01/31 07:57:23;;;;;;;4.22;1.08;;;;;;;;;;5073094;28;20028;-47
2023/01/31 07:59:49;;;;;;;2.83;1.05;;;;;;;;;;5076218;28;20381;-46
2023/01/31 08:05:00;;;;;;;3.78;1.02;;;;;;;;;;5069117;28;20044;-46
2023/01/31 08:07:27;;;;;;;3.13;1.80;;;;;;;;;;5070601;28;20020;-47
2023/01/31 08:09:53;;;;;;;2.45;0.73;;;;;;;;;;5072114;28;20207;-45
2023/01/31 08:12:19;;;;;;;2.53;1.00;;;;;;;;;;5056814;28;20104;-45
2023/01/31 08:14:45;;;;;;;2.28;0.80;;;;;;;;;;5066429;28;20116;-46
2023/01/31 08:17:11;;;;;;;4.80;0.82;;;;;;;;;;5071433;28;20058;-48
2023/01/31 08:19:37;;;;;;;2.42;0.80;;;;;;;;;;5075082;28;20012;-51
2023/01/31 08:22:03;;;;;;;2.10;0.90;;;;;;;;;;5073525;28;20032;-47
2023/01/31 08:24:30;;;;;;;4.13;0.90;;;;;;;;;;5080567;28;20020;-46
2023/01/31 08:26:56;;;;;;;5.18;1.17;;;;;;;;;;5072346;28;20082;-46
2023/01/31 08:29:23;;;;;;;2.80;0.73;;;;;;;;;;5072464;28;20031;-45
2023/01/31 08:31:49;;;;;;;2.38;0.90;;;;;;;;;;5072086;28;20016;-46
2023/01/31 08:34:15;;;;;;;3.92;1.05;;;;;;;;;;5079138;28;20032;-46
2023/01/31 08:36:42;;;;;;;2.70;0.68;;;;;;;;;;5074076;28;20035;-46
2023/01/31 08:39:08;;;;;;;2.28;0.80;;;;;;;;;;5066679;28;20025;-47
2023/01/31 08:41:34;;;;;;;2.13;0.60;;;;;;;;;;5078369;28;20024;-50
2023/01/31 08:44:02;;;;;;;2.05;0.80;;;;;;;;;;5073155;28;20099;-46
2023/01/31 08:46:29;;;;;;;2.25;1.30;;;;;;;;;;5076544;28;20044;-49
2023/01/31 08:48:55;;;;;;;2.50;1.17;;;;;;;;;;5072015;28;20019;-47
2023/01/31 08:51:22;;;;;;;3.08;0.98;;;;;;;;;;5073063;28;20017;-46
2023/01/31 08:53:48;;;;;;;1.80;1.10;;;;;;;;;;5081309;28;20024;-46
2023/01/31 08:56:14;;;;;;;3.80;1.15;;;;;;;;;;5072380;28;20039;-46
2023/01/31 08:58:41;;;;;;;5.13;1.23;;;;;;;;;;5072736;28;20029;-48
2023/01/31 09:01:09;;;;;;;2.60;1.08;;;;;;;;;;5069695;28;20046;-46
2023/01/31 09:03:36;;;;;;;2.28;0.85;;;;;;;;;;5069219;28;20082;-46
2023/01/31 09:06:03;;;;;;;2.50;0.95;;;;;;;;;;5071634;28;20110;-46
2023/01/31 09:08:30;;;;;;;3.47;0.90;;;;;;;;;;5072436;28;20136;-46
2023/01/31 09:10:59;;;;;;;3.58;0.85;;;;;;;;;;5072035;28;20074;-46
2023/01/31 09:13:25;;;;;;;3.08;0.95;;;;;;;;;;5073484;28;20137;-46
2023/01/31 09:15:58;;;;;;;3.00;0.80;;;;;;;;;;5066320;28;20033;-45
2023/01/31 09:18:24;;;;;;;4.35;1.30;;;;;;;;;;5072031;28;20082;-46
2023/01/31 09:20:50;;;;;;;2.70;1.00;;;;;;;;;;5066556;28;20028;-46
2023/01/31 09:23:16;;;;;;;3.15;1.05;;;;;;;;;;5071989;28;20103;-46
2023/01/31 09:25:41;;;;;;;3.58;1.00;;;;;;;;;;5072599;28;20146;-46
2023/01/31 09:28:08;;;;;;;1.75;0.65;;;;;;;;;;5073118;28;20032;-46
2023/01/31 09:30:34;;;;;;;5.03;0.95;;;;;;;;;;5080794;28;20057;-46
2023/01/31 09:33:00;;;;;;;3.67;1.30;;;;;;;;;;5060116;28;20037;-49
2023/01/31 09:35:27;;;;;;;2.75;0.90;;;;;;;;;;5066117;28;20033;-46
2023/01/31 09:37:53;;;;;;;2.45;0.77;;;;;;;;;;5063832;28;20029;-46
2023/01/31 09:40:23;;;;;;;2.63;0.88;;;;;;;;;;5070304;28;20359;-46
2023/01/31 09:42:51;;;;;;;2.55;1.40;;;;;;;;;;5071812;28;20028;-46
2023/01/31 09:45:31;;;;;;;1.65;0.70;;;;;;;;;;5079547;28;20114;-47
2023/01/31 09:47:58;;;;;;;1.40;0.70;;;;;;;;;;5072641;28;20048;-46
2023/01/31 09:50:39;;;;;;;1.42;0.77;;;;;;;;;;5071130;28;20066;-47
2023/01/31 09:53:06;;;;;;;2.88;1.00;;;;;;;;;;5071347;28;20035;-46
2023/01/31 09:55:39;;;;;;;2.13;1.15;;;;;;;;;;5072393;28;20131;-45
2023/01/31 09:58:26;;;;;;;2.03;0.70;;;;;;;;;;5071197;28;20036;-46
2023/01/31 10:00:57;;;;;;;2.30;0.80;;;;;;;;;;5067721;28;20095;-45
2023/01/31 10:03:26;;;;;;;4.37;0.93;;;;;;;;;;5065629;28;20028;-47
2023/01/31 10:05:52;;;;;;;3.60;0.90;;;;;;;;;;5070901;28;20613;-46
2023/01/31 10:08:21;;;;;;;2.03;0.70;;;;;;;;;;5071897;28;20082;-46
2023/01/31 10:10:50;;;;;;;2.38;0.73;;;;;;;;;;5069710;28;20428;-46
2023/01/31 10:13:20;;;;;;;2.25;0.85;;;;;;;;;;5070426;28;20024;-46
2023/01/31 10:15:56;;;;;;;1.73;0.93;;;;;;;;;;5071684;28;20036;-46
2023/01/31 10:18:27;;;;;;;2.67;0.82;;;;;;;;;;5075501;28;20074;-46
2023/01/31 10:20:56;;;;;;;1.65;0.82;;;;;;;;;;5076483;28;20037;-45
2023/01/31 10:23:24;;;;;;;2.75;1.05;;;;;;;;;;5071838;28;20379;-46
2023/01/31 10:25:53;;;;;;;2.67;0.95;;;;;;;;;;5080057;28;20108;-46
2023/01/31 10:28:22;;;;;;;2.13;0.90;;;;;;;;;;5064833;28;20032;-46
2023/01/31 10:30:58;;;;;;;2.05;0.65;;;;;;;;;;5075616;28;20035;-48
2023/01/31 10:33:28;;;;;;;4.18;1.52;;;;;;;;;;5074230;28;20019;-47
2023/01/31 10:35:57;;;;;;;2.60;0.93;;;;;;;;;;5075090;28;20540;-47
2023/01/31 10:38:28;;;;;;;3.80;0.80;;;;;;;;;;5058282;28;20409;-47
2023/01/31 10:41:06;;;;;;;1.35;0.75;;;;;;;;;;5069522;28;20025;-45
2023/01/31 10:43:39;;;;;;;1.60;0.80;;;;;;;;;;5060181;28;20116;-47
2023/01/31 10:46:10;;;;;;;3.75;0.75;;;;;;;;;;5069076;28;20072;-46
2023/01/31 10:48:36;;;;;;;3.65;0.98;;;;;;;;;;5068850;28;20024;-46
2023/01/31 10:51:11;;;;;;;2.80;1.00;;;;;;;;;;5070142;28;20034;-46
2023/01/31 10:53:43;;;;;;;2.05;1.00;;;;;;;;;;5075596;28;20028;-50
2023/01/31 10:56:13;;;;;;;1.90;0.90;;;;;;;;;;5070395;28;20029;-46
2023/01/31 10:58:39;;;;;;;3.28;0.77;;;;;;;;;;5070756;28;20422;-46
2023/01/31 11:01:10;;;;;;;2.42;0.93;;;;;;;;;;5068633;28;20107;-46
2023/01/31 11:03:37;;;;;;;1.25;0.68;;;;;;;;;;5071578;28;20489;-49
2023/01/31 11:06:05;;;;;;;2.80;0.77;;;;;;;;;;5077335;28;20048;-46
2023/01/31 11:08:44;;;;;;;2.67;0.80;;;;;;;;;;5067305;28;20025;-47
2023/01/31 11:11:18;;;;;;;2.70;0.90;;;;;;;;;;5068639;28;20037;-45
2023/01/31 11:13:56;;;;;;;2.45;1.27;;;;;;;;;;5069913;28;20040;-46
2023/01/31 11:16:26;;;;;;;4.25;0.95;;;;;;;;;;5070840;28;20105;-45
2023/01/31 11:18:52;;;;;;;2.33;0.77;;;;;;;;;;5066842;28;20107;-46
2023/01/31 11:21:22;;;;;;;4.88;1.65;;;;;;;;;;5070837;28;20020;-47
2023/01/31 11:23:48;;;;;;;8.43;2.05;;;;;;;;;;5070494;28;20378;-47
2023/01/31 11:26:24;;;;;;;17.92;4.70;;;;;;;;;;5071327;28;20047;-48
2023/01/31 11:28:51;;;;;;;18.77;5.03;;;;;;;;;;5070454;28;20021;-45
2023/01/31 11:31:26;;;;;;;16.38;3.85;;;;;;;;;;5070735;28;20117;-47
2023/01/31 11:34:00;;;;;;;12.80;3.50;;;;;;;;;;5068189;28;20035;-45
2023/01/31 11:36:30;;;;;;;11.20;3.25;;;;;;;;;;5069810;28;20037;-46
2023/01/31 11:38:56;;;;;;;10.65;2.80;;;;;;;;;;5069589;28;20025;-46
2023/01/31 11:41:33;;;;;;;11.07;3.20;;;;;;;;;;5072026;28;20025;-50
2023/01/31 11:44:15;;;;;;;13.80;4.47;;;;;;;;;;5069258;28;20040;-45
2023/01/31 11:46:43;;;;;;;11.40;3.95;;;;;;;;;;5063696;28;20020;-47
2023/01/31 11:49:14;;;;;;;6.43;2.97;;;;;;;;;;5061854;28;20787;-45
2023/01/31 11:51:40;;;;;;;8.30;2.25;;;;;;;;;;5067437;28;20017;-47
2023/01/31 11:54:06;;;;;;;9.43;3.78;;;;;;;;;;5071107;28;20575;-46
2023/01/31 11:56:35;;;;;;;9.35;2.72;;;;;;;;;;5065371;28;20036;-45
2023/01/31 11:59:04;;;;;;;10.82;3.42;;;;;;;;;;5069974;28;20109;-45
2023/01/31 12:01:31;;;;;;;9.52;2.40;;;;;;;;;;5075427;28;20359;-46
2023/01/31 12:04:05;;;;;;;7.13;2.40;;;;;;;;;;5072791;28;20031;-46
2023/01/31 12:06:32;;;;;;;6.60;2.10;;;;;;;;;;5073720;28;20394;-45
2023/01/31 12:08:59;;;;;;;7.88;2.33;;;;;;;;;;5072956;28;20373;-48
2023/01/31 12:11:29;;;;;;;16.27;3.03;;;;;;;;;;5073275;28;20016;-46
2023/01/31 12:14:06;;;;;;;5.35;1.88;;;;;;;;;;5074659;28;20020;-46
2023/01/31 12:16:33;;;;;;;8.05;1.98;;;;;;;;;;5073835;28;20043;-47
2023/01/31 12:18:59;;;;;;;7.03;2.28;;;;;;;;;;5072521;28;20032;-45
2023/01/31 12:21:44;;;;;;;6.20;2.05;;;;;;;;;;5073705;28;20020;-47
2023/01/31 12:24:10;;;;;;;4.68;2.00;;;;;;;;;;5069012;28;20017;-45
2023/01/31 12:26:44;;;;;;;5.93;1.80;;;;;;;;;;5072744;28;20773;-46
2023/01/31 12:29:26;;;;;;;8.80;2.67;;;;;;;;;;5070710;28;20043;-45
2023/01/31 12:32:16;;;;;;;5.30;2.33;;;;;;;;;;5073859;28;20132;-46
2023/01/31 12:34:54;;;;;;;5.10;1.35;;;;;;;;;;5068586;28;20032;-45
2023/01/31 12:37:23;;;;;;;4.20;1.73;;;;;;;;;;5071590;28;20035;-46
2023/01/31 12:40:03;;;;;;;7.55;1.70;;;;;;;;;;5073587;28;20085;-45
2023/01/31 12:42:45;;;;;;;5.03;1.92;;;;;;;;;;5073448;28;20062;-45
2023/01/31 12:45:31;;;;;;;4.60;1.40;;;;;;;;;;5071573;28;20017;-46
2023/01/31 12:48:12;;;;;;;6.05;1.98;;;;;;;;;;5072226;28;20021;-46
2023/01/31 12:50:48;;;;;;;4.45;1.50;;;;;;;;;;5071509;28;20031;-47
2023/01/31 12:53:14;;;;;;;4.25;1.90;;;;;;;;;;5068914;28;20082;-46
2023/01/31 12:55:46;;;;;;;3.85;1.17;;;;;;;;;;5071328;28;20029;-48
2023/01/31 12:58:12;;;;;;;;;;;;;;;;;;5066663;28;20041;-45
2023/01/31 13:00:48;;;;;;;4.03;2.30;;;;;;;;;;5068480;28;20285;-46
2023/01/31 13:03:27;;;;;;;4.13;1.20;;;;;;;;;;5053892;28;20025;-46
2023/01/31 13:05:57;;;;;;;2.28;1.00;;;;;;;;;;5075205;28;20055;-45
2023/01/31 13:08:25;;;;;;;4.28;1.90;;;;;;;;;;5070469;28;20112;-50
2023/01/31 13:11:04;;;;;;;5.60;1.40;;;;;;;;;;5076989;28;20037;-46
2023/01/31 13:13:33;;;;;;;2.00;1.00;;;;;;;;;;5060715;28;20017;-48
2023/01/31 13:16:22;;;;;;;3.15;1.25;;;;;;;;;;5071903;28;20028;-45
2023/01/31 13:18:50;;;;;;;5.25;1.20;;;;;;;;;;5059452;28;20036;-45
2023/01/31 13:21:18;;;;;;;5.72;1.60;;;;;;;;;;5072264;28;20028;-45
2023/01/31 13:23:49;;;;;;;5.60;1.30;;;;;;;;;;5072365;28;20021;-46
2023/01/31 13:26:29;;;;;;;5.30;1.27;;;;;;;;;;5074039;28;20032;-45
2023/01/31 13:28:58;;;;;;;6.30;1.35;;;;;;;;;;5077212;28;20047;-46
2023/01/31 13:31:26;;;;;;;4.55;1.40;;;;;;;;;;5074826;28;20024;-45
2023/01/31 13:34:06;;;;;;;2.55;1.00;;;;;;;;;;5068426;28;20100;-45
2023/01/31 13:36:35;;;;;;;3.92;1.42;;;;;;;;;;5065753;28;20090;-47
2023/01/31 13:39:05;;;;;;;3.47;1.25;;;;;;;;;;5071266;28;20477;-46
2023/01/31 13:41:32;;;;;;;2.40;1.25;;;;;;;;;;5072569;28;20032;-46
2023/01/31 13:43:59;;;;;;;2.38;1.20;;;;;;;;;;5069445;28;20028;-47
2023/01/31 13:46:31;;;;;;;3.15;1.20;;;;;;;;;;5076830;28;20040;-47
2023/01/31 13:48:57;;;;;;;;;;;;;;;;;;5071307;28;20052;-45
2023/01/31 13:51:36;;;;;;;3.03;1.55;;;;;;;;;;5072038;28;19913;-46
2023/01/31 13:54:16;;;;;;;3.65;1.40;;;;;;;;;;5067063;28;20024;-46
2023/01/31 13:56:42;;;;;;;3.42;1.00;;;;;;;;;;5073703;28;20047;-46
2023/01/31 13:59:09;;;;;;;3.30;1.38;;;;;;;;;;5071183;28;20049;-46
2023/01/31 14:01:43;;;;;;;3.53;1.05;;;;;;;;;;5071934;28;20110;-46
2023/01/31 14:04:20;;;;;;;3.05;1.15;;;;;;;;;;5061858;28;20020;-46
2023/01/31 14:06:49;;;;;;;2.45;1.13;;;;;;;;;;5062276;28;20048;-47
2023/01/31 14:09:22;;;;;;;3.70;1.00;;;;;;;;;;5064528;28;20526;-45
2023/01/31 14:11:48;;;;;;;3.20;1.30;;;;;;;;;;5061709;28;20090;-46
2023/01/31 14:14:19;;;;;;;4.05;1.30;;;;;;;;;;5070760;28;20035;-45
2023/01/31 14:16:45;;;;;;;2.53;1.00;;;;;;;;;;5074049;28;20032;-46
2023/01/31 14:19:23;;;;;;;2.78;1.13;;;;;;;;;;5066920;28;20031;-49
2023/01/31 14:21:52;;;;;;;3.30;0.95;;;;;;;;;;5070289;28;20020;-47
2023/01/31 14:24:19;;;;;;;1.98;0.90;;;;;;;;;;5067740;28;20103;-47
2023/01/31 14:26:45;;;;;;;2.70;0.93;;;;;;;;;;5070436;28;20112;-45
2023/01/31 14:29:14;;;;;;;1.77;0.80;;;;;;;;;;5070254;28;20655;-46
2023/01/31 14:31:42;;;;;;;3.70;0.98;;;;;;;;;;5072778;28;20495;-45
2023/01/31 14:34:18;;;;;;;2.30;1.40;;;;;;;;;;5077727;28;20029;-47
2023/01/31 14:36:44;;;;;;;5.40;1.23;;;;;;;;;;5071440;28;20040;-49
2023/01/31 14:39:29;;;;;;;3.65;1.10;;;;;;;;;;5075137;28;20028;-48
2023/01/31 14:42:14;;;;;;;2.78;1.20;;;;;;;;;;5069530;28;20029;-46
2023/01/31 14:45:13;;;;;;;3.67;1.00;;;;;;;;;;5061324;28;20481;-46
2023/01/31 14:48:02;;;;;;;1.75;0.80;;;;;;;;;;5023947;28;20116;-46
2023/01/31 14:50:30;;;;;;;1.58;0.80;;;;;;;;;;5032987;28;20136;-46
2023/01/31 14:53:19;;;;;;;2.97;1.10;;;;;;;;;;5070123;28;20071;-47
2023/01/31 14:55:59;;;;;;;2.50;1.25;;;;;;;;;;5081046;28;20111;-45
2023/01/31 14:58:27;;;;;;;3.28;0.90;;;;;;;;;;5065138;28;20111;-45
2023/01/31 15:00:59;;;;;;;2.33;0.98;;;;;;;;;;5070603;28;20036;-45
2023/01/31 15:03:27;;;;;;;2.97;1.02;;;;;;;;;;5065048;28;20027;-46